map of EGC home
Great Circle Mapper logo
EGC - Airport
Location
City:  Bergerac, France
Name:Roumaniere
ICAO / IATA:LFBE / EGC

Details
Type:Airport (Aerodrome, Airfield)
Use:Public/Civil
Latitude:4449'28"N (44.824431)
Longitude:031'14"E (0.520525)
Elevation:171 ft (52 m)
Variation:0.01W (WMM2015 magnetic declination)
0.12 annual change
Runways:2
Longest:7234 × 148 ft (2205 × 45 m)

Time
Time Zone:UTC+1 (DST+2)
Local Time:

Weather
METAR:LFBE 070600Z AUTO 21004KT 180V250 CAVOK 23/20 Q1014
TAF:LFBE 070500Z 0706/0806 29008KT CAVOK
BECMG 0719/0721 BKN020= TAF LFBH 070500Z 0706/0806 32010KT CAVOK
TEMPO 0706/0707 -SHRA FEW100CB
BECMG 0707/0709 27010G20KT BKN018
TEMPO 0712/0718 -RA BKN013
BECMG 0722/0724 SCT030

Related Locations
Nearby:
Farthest:CHT: 12273 mi / 19752 km
Waitangi [Tuuta], Chatham Islands, NZ

Find:

   beyond  
but within

Other Information
Maps:
NOTAMs:
Links:
Sources:

  
flag of France   

Sectional Chart

Flight Planning
at skyvector.com

Satellite Image

Google Maps Satellite view

 

Copyright © 2004-2015 Karl L. Swartz. All rights reserved.
The Great Circle Mapper name and logo are trademarks of the Great Circle Mapper.
All other trademarks mentioned herein belong to their respective owners.
Please see credits for attibutions and further copyright information.

  Follow gcmap on Facebook Follow gcmap on Twitter Follow gcmap on Google+

hCard Microformat

Geo Microformat